Time;durP1;ratioP1;P1;durP2;ratioP2;P2;SDS_P1;SDS_P2;PMS_P1;PMS_P2;Temp;Humidity;BMP_temperature;BMP_pressure;BME280_temperature;BME280_humidity;BME280_pressure;Samples;Min_cycle;Max_cycle;Signal;HPM_P1;HPM_P2
2022/03/27 00:01:18;;;;;;;21.50;10.53;;;;;;;;;;5053018;28;20474;-62
2022/03/27 00:03:44;;;;;;;23.43;11.57;;;;;;;;;;5052554;28;20646;-62
2022/03/27 00:06:10;;;;;;;22.67;10.43;;;;;;;;;;5052967;28;20891;-62
2022/03/27 00:08:36;;;;;;;21.00;11.17;;;;;;;;;;5052823;28;20464;-63
2022/03/27 00:13:47;;;;;;;20.97;11.20;;;;;;;;;;5053125;28;20385;-63
2022/03/27 00:16:13;;;;;;;21.13;10.67;;;;;;;;;;5052903;28;20488;-62
2022/03/27 00:18:41;;;;;;;20.10;11.17;;;;;;;;;;5052782;28;20394;-63
2022/03/27 00:21:07;;;;;;;23.90;11.53;;;;;;;;;;5052854;28;20420;-62
2022/03/27 00:23:33;;;;;;;22.17;11.97;;;;;;;;;;5052516;28;20453;-63
2022/03/27 00:25:59;;;;;;;23.77;11.27;;;;;;;;;;5052924;28;20440;-63
2022/03/27 00:28:31;;;;;;;21.33;10.80;;;;;;;;;;5052763;28;20390;-62
2022/03/27 00:30:58;;;;;;;18.47;10.77;;;;;;;;;;5052786;28;20428;-63
2022/03/27 00:33:24;;;;;;;24.60;12.07;;;;;;;;;;5052703;28;20538;-65
2022/03/27 00:35:50;;;;;;;22.73;11.17;;;;;;;;;;5052663;28;20829;-63
2022/03/27 00:38:17;;;;;;;20.63;9.87;;;;;;;;;;5052750;28;20893;-63
2022/03/27 00:40:43;;;;;;;19.07;10.10;;;;;;;;;;5052721;28;20473;-62
2022/03/27 00:43:09;;;;;;;21.97;11.80;;;;;;;;;;5052427;28;20518;-62
2022/03/27 00:45:35;;;;;;;27.07;10.97;;;;;;;;;;5052585;28;20425;-62
2022/03/27 00:48:01;;;;;;;19.47;9.67;;;;;;;;;;5052655;28;20424;-62
2022/03/27 00:50:27;;;;;;;23.83;10.67;;;;;;;;;;5052512;28;20466;-63
2022/03/27 00:52:53;;;;;;;16.90;10.43;;;;;;;;;;5052576;28;21146;-62
2022/03/27 00:55:19;;;;;;;19.40;10.40;;;;;;;;;;5052438;28;20500;-62
2022/03/27 00:57:45;;;;;;;20.80;10.90;;;;;;;;;;5052517;28;20415;-62
2022/03/27 01:00:19;;;;;;;19.10;10.70;;;;;;;;;;5052505;28;20402;-62
2022/03/27 01:02:45;;;;;;;24.13;11.47;;;;;;;;;;5052385;28;20950;-62
2022/03/27 01:05:13;;;;;;;21.33;10.77;;;;;;;;;;5052239;28;20460;-62
2022/03/27 01:07:40;;;;;;;23.33;11.87;;;;;;;;;;5052248;28;20568;-63
2022/03/27 01:10:07;;;;;;;16.10;10.13;;;;;;;;;;5052490;28;20756;-63
2022/03/27 01:12:38;;;;;;;23.20;10.40;;;;;;;;;;5052473;28;20416;-62
2022/03/27 01:15:06;;;;;;;19.80;10.90;;;;;;;;;;5052461;28;20444;-62
2022/03/27 01:17:34;;;;;;;18.47;10.50;;;;;;;;;;5055898;28;20927;-62
2022/03/27 01:20:03;;;;;;;23.13;11.10;;;;;;;;;;5056017;28;20398;-63
2022/03/27 01:22:29;;;;;;;21.90;10.70;;;;;;;;;;5055791;28;20418;-62
2022/03/27 01:24:55;;;;;;;21.10;10.90;;;;;;;;;;5055463;28;20478;-62
2022/03/27 01:27:21;;;;;;;22.47;9.73;;;;;;;;;;5054514;28;20447;-62
2022/03/27 01:29:48;;;;;;;22.93;10.50;;;;;;;;;;5055527;28;20884;-62
2022/03/27 01:32:15;;;;;;;21.33;11.47;;;;;;;;;;5055671;28;20398;-62
2022/03/27 01:34:44;;;;;;;20.50;9.20;;;;;;;;;;5055308;28;20422;-64
2022/03/27 01:37:11;;;;;;;20.87;10.97;;;;;;;;;;5055431;28;20404;-63
2022/03/27 01:39:38;;;;;;;21.17;10.97;;;;;;;;;;5055443;28;20408;-61
2022/03/27 01:42:05;;;;;;;17.80;10.27;;;;;;;;;;5055304;28;20429;-62
2022/03/27 01:44:31;;;;;;;16.00;9.53;;;;;;;;;;5055057;28;20936;-62
2022/03/27 01:46:59;;;;;;;26.60;10.57;;;;;;;;;;5055221;28;20402;-63
2022/03/27 01:49:26;;;;;;;18.83;10.40;;;;;;;;;;5054078;28;20980;-61
2022/03/27 01:51:52;;;;;;;21.10;11.90;;;;;;;;;;5055383;28;20498;-63
2022/03/27 01:54:19;;;;;;;23.00;11.00;;;;;;;;;;5055378;28;20406;-63
2022/03/27 01:56:45;;;;;;;21.87;10.73;;;;;;;;;;5055304;28;20505;-63
2022/03/27 01:59:11;;;;;;;20.47;10.83;;;;;;;;;;5055124;28;20767;-64
2022/03/27 02:01:37;;;;;;;18.10;10.33;;;;;;;;;;5055196;28;20416;-63
2022/03/27 02:04:04;;;;;;;24.40;12.00;;;;;;;;;;5054919;28;20481;-63
2022/03/27 02:06:30;;;;;;;20.57;10.53;;;;;;;;;;5055020;28;20410;-62
2022/03/27 02:08:58;;;;;;;18.03;10.27;;;;;;;;;;5054786;28;20469;-62
2022/03/27 02:11:24;;;;;;;17.47;10.17;;;;;;;;;;5054885;28;20463;-61
2022/03/27 02:13:51;;;;;;;19.87;10.27;;;;;;;;;;5053605;28;20417;-62
2022/03/27 02:16:17;;;;;;;21.20;10.67;;;;;;;;;;5054887;28;20406;-63
2022/03/27 02:18:43;;;;;;;19.20;10.30;;;;;;;;;;5054852;28;20904;-63
2022/03/27 02:21:09;;;;;;;26.30;12.00;;;;;;;;;;5054832;28;20435;-63
2022/03/27 02:23:35;;;;;;;19.07;10.47;;;;;;;;;;5054525;28;20468;-62
2022/03/27 02:26:01;;;;;;;19.70;10.63;;;;;;;;;;5054646;28;20414;-64
2022/03/27 02:28:27;;;;;;;24.47;10.73;;;;;;;;;;5054546;28;20467;-63
2022/03/27 02:30:54;;;;;;;19.00;10.27;;;;;;;;;;5054601;28;20405;-62
2022/03/27 02:33:20;;;;;;;22.53;10.70;;;;;;;;;;5054368;28;20905;-62
2022/03/27 02:35:46;;;;;;;16.03;9.27;;;;;;;;;;5054271;28;21002;-62
2022/03/27 02:38:12;;;;;;;24.60;12.20;;;;;;;;;;5054414;28;20421;-62
2022/03/27 02:40:39;;;;;;;28.43;9.73;;;;;;;;;;5054320;28;20444;-62
2022/03/27 02:43:05;;;;;;;22.67;9.60;;;;;;;;;;5052645;28;20571;-62
2022/03/27 02:45:32;;;;;;;25.90;10.60;;;;;;;;;;5054098;28;20401;-62
2022/03/27 02:47:58;;;;;;;23.90;11.40;;;;;;;;;;5054061;28;20851;-62
2022/03/27 02:50:26;;;;;;;20.87;10.73;;;;;;;;;;5054104;28;20401;-62
2022/03/27 02:52:52;;;;;;;19.80;10.87;;;;;;;;;;5054030;28;20414;-63
2022/03/27 02:55:19;;;;;;;17.70;10.90;;;;;;;;;;5054102;28;20397;-62
2022/03/27 02:57:45;;;;;;;30.13;11.70;;;;;;;;;;5053942;28;20454;-63
2022/03/27 03:00:11;;;;;;;22.17;10.63;;;;;;;;;;5053787;28;20393;-62
2022/03/27 03:02:37;;;;;;;29.73;11.57;;;;;;;;;;5053683;28;20916;-63
2022/03/27 03:05:04;;;;;;;22.07;10.50;;;;;;;;;;5053935;28;20790;-62
2022/03/27 03:07:30;;;;;;;26.70;11.17;;;;;;;;;;5053587;28;21019;-72
2022/03/27 03:09:56;;;;;;;19.97;11.00;;;;;;;;;;5053791;28;20434;-72
2022/03/27 03:12:22;;;;;;;18.40;9.73;;;;;;;;;;5053756;28;20417;-70
2022/03/27 03:14:50;;;;;;;18.57;10.20;;;;;;;;;;5053598;28;20414;-72
2022/03/27 03:17:16;;;;;;;22.30;10.67;;;;;;;;;;5053596;28;20477;-72
2022/03/27 03:19:42;;;;;;;21.63;10.57;;;;;;;;;;5053417;28;20402;-72
2022/03/27 03:22:09;;;;;;;21.03;11.70;;;;;;;;;;5053534;28;20417;-72
2022/03/27 03:24:35;;;;;;;20.10;10.37;;;;;;;;;;5053269;28;20560;-72
2022/03/27 03:27:01;;;;;;;16.43;9.47;;;;;;;;;;5053288;28;20405;-71
2022/03/27 03:29:27;;;;;;;20.70;11.10;;;;;;;;;;5053174;28;20402;-71
2022/03/27 03:31:53;;;;;;;21.13;11.20;;;;;;;;;;5053366;28;20398;-72
2022/03/27 03:34:19;;;;;;;20.27;10.60;;;;;;;;;;5053163;28;20410;-63
2022/03/27 03:36:45;;;;;;;17.90;10.37;;;;;;;;;;5053152;28;20464;-62
2022/03/27 03:39:12;;;;;;;18.40;10.00;;;;;;;;;;5052616;28;20478;-62
2022/03/27 03:41:38;;;;;;;20.97;11.47;;;;;;;;;;5052831;28;20441;-62
2022/03/27 03:44:04;;;;;;;20.90;10.97;;;;;;;;;;5052869;28;20461;-63
2022/03/27 03:46:30;;;;;;;27.87;12.33;;;;;;;;;;5053103;28;20398;-63
2022/03/27 03:48:56;;;;;;;24.60;10.40;;;;;;;;;;5053079;28;20953;-63
2022/03/27 03:51:22;;;;;;;21.33;11.03;;;;;;;;;;5052982;28;20477;-62
2022/03/27 03:53:48;;;;;;;25.27;10.60;;;;;;;;;;5052939;28;20496;-62
2022/03/27 03:56:14;;;;;;;22.50;10.30;;;;;;;;;;5052941;28;20410;-64
2022/03/27 03:58:40;;;;;;;20.07;11.00;;;;;;;;;;5052868;28;20410;-62
2022/03/27 04:01:06;;;;;;;23.13;11.60;;;;;;;;;;5052748;28;20394;-62
2022/03/27 04:03:32;;;;;;;21.83;10.90;;;;;;;;;;5051676;28;20488;-62
2022/03/27 04:05:59;;;;;;;20.53;11.30;;;;;;;;;;5052766;28;20800;-63
2022/03/27 04:08:25;;;;;;;19.90;10.37;;;;;;;;;;5052611;28;20495;-63
2022/03/27 04:10:51;;;;;;;20.93;10.60;;;;;;;;;;5052796;28;20408;-62
2022/03/27 04:13:18;;;;;;;20.40;10.90;;;;;;;;;;5052682;28;20420;-62
2022/03/27 04:15:44;;;;;;;18.63;11.23;;;;;;;;;;5052729;28;20398;-63
2022/03/27 04:18:10;;;;;;;24.47;11.03;;;;;;;;;;5052780;28;20448;-63
2022/03/27 04:20:36;;;;;;;19.67;10.70;;;;;;;;;;5051296;28;20460;-63
2022/03/27 04:23:02;;;;;;;19.80;11.47;;;;;;;;;;5052488;28;20458;-64
2022/03/27 04:25:28;;;;;;;26.87;11.87;;;;;;;;;;5052476;28;20432;-64
2022/03/27 04:27:55;;;;;;;20.67;10.13;;;;;;;;;;5052661;28;20413;-62
2022/03/27 04:30:21;;;;;;;20.40;10.57;;;;;;;;;;5052472;28;20412;-63
2022/03/27 04:32:47;;;;;;;19.87;11.07;;;;;;;;;;5052421;28;20405;-62
2022/03/27 04:35:14;;;;;;;21.10;10.53;;;;;;;;;;5051186;28;20464;-62
2022/03/27 04:37:41;;;;;;;21.40;11.27;;;;;;;;;;5051283;28;20432;-62
2022/03/27 04:40:07;;;;;;;19.10;10.43;;;;;;;;;;5052545;28;20416;-63
2022/03/27 04:42:33;;;;;;;28.17;11.00;;;;;;;;;;5052620;28;20401;-62
2022/03/27 04:44:59;;;;;;;21.67;11.37;;;;;;;;;;5052468;28;20469;-64
2022/03/27 04:47:25;;;;;;;22.03;10.90;;;;;;;;;;5052586;28;20465;-62
2022/03/27 04:49:51;;;;;;;26.50;13.30;;;;;;;;;;5052345;28;20820;-62
2022/03/27 04:52:17;;;;;;;22.10;11.13;;;;;;;;;;5054462;28;20409;-63
2022/03/27 04:54:43;;;;;;;28.10;12.20;;;;;;;;;;5056322;28;20459;-64
2022/03/27 04:57:09;;;;;;;22.50;10.40;;;;;;;;;;5054958;28;20421;-64
2022/03/27 04:59:35;;;;;;;23.47;11.00;;;;;;;;;;5056184;28;20791;-62
2022/03/27 05:02:01;;;;;;;29.33;11.70;;;;;;;;;;5055985;28;20467;-63
2022/03/27 05:04:28;;;;;;;22.50;11.53;;;;;;;;;;5056035;28;20504;-63
2022/03/27 05:06:54;;;;;;;17.10;10.03;;;;;;;;;;5056109;28;20410;-62
2022/03/27 05:09:20;;;;;;;19.73;11.83;;;;;;;;;;5054485;28;20492;-62
2022/03/27 05:11:50;;;;;;;21.37;11.40;;;;;;;;;;5054616;28;20420;-62
2022/03/27 05:14:16;;;;;;;22.73;11.43;;;;;;;;;;5055825;28;20436;-64
2022/03/27 05:16:42;;;;;;;16.63;10.37;;;;;;;;;;5055963;28;20416;-70
2022/03/27 05:19:08;;;;;;;18.63;10.30;;;;;;;;;;5055700;28;20427;-71
2022/03/27 05:21:35;;;;;;;22.30;10.63;;;;;;;;;;5055601;28;20409;-70
2022/03/27 05:24:01;;;;;;;18.27;11.10;;;;;;;;;;5055728;28;20468;-62
2022/03/27 05:26:27;;;;;;;20.70;11.40;;;;;;;;;;5055741;28;20405;-62
2022/03/27 05:28:54;;;;;;;20.50;10.37;;;;;;;;;;5055610;28;20486;-69
2022/03/27 05:31:20;;;;;;;20.27;10.47;;;;;;;;;;5055588;28;20845;-65
2022/03/27 05:33:46;;;;;;;20.27;11.33;;;;;;;;;;5055421;28;20449;-65
2022/03/27 05:36:12;;;;;;;23.60;11.53;;;;;;;;;;5054242;28;20422;-66
2022/03/27 05:38:39;;;;;;;19.97;10.47;;;;;;;;;;5055458;28;20479;-72
2022/03/27 05:41:05;;;;;;;19.60;10.57;;;;;;;;;;5055297;28;20441;-71
2022/03/27 05:43:32;;;;;;;22.40;11.40;;;;;;;;;;5055206;28;20484;-72
2022/03/27 05:45:58;;;;;;;24.13;10.43;;;;;;;;;;5055367;28;20418;-67
2022/03/27 05:48:24;;;;;;;20.80;10.77;;;;;;;;;;5055338;28;20394;-72
2022/03/27 05:50:50;;;;;;;21.10;10.80;;;;;;;;;;5055111;28;20497;-74
2022/03/27 05:53:16;;;;;;;22.80;10.80;;;;;;;;;;5055136;28;20402;-72
2022/03/27 05:55:42;;;;;;;16.53;10.27;;;;;;;;;;5055166;28;20420;-69
2022/03/27 05:58:08;;;;;;;22.60;12.00;;;;;;;;;;5055082;28;20397;-69
2022/03/27 06:00:34;;;;;;;23.90;11.67;;;;;;;;;;5054959;28;20424;-69
2022/03/27 06:03:01;;;;;;;19.83;11.33;;;;;;;;;;5054534;28;20396;-69
2022/03/27 06:05:26;;;;;;;25.10;12.17;;;;;;;;;;5054948;28;20438;-62
2022/03/27 06:07:59;;;;;;;21.10;12.20;;;;;;;;;;5053237;28;20467;-62
2022/03/27 06:10:26;;;;;;;26.27;11.93;;;;;;;;;;5054823;28;20409;-62
2022/03/27 06:12:52;;;;;;;19.30;10.90;;;;;;;;;;5053478;28;20418;-62
2022/03/27 06:15:19;;;;;;;22.33;10.67;;;;;;;;;;5053500;28;20410;-63
2022/03/27 06:17:46;;;;;;;21.00;9.90;;;;;;;;;;5054843;28;20483;-62
2022/03/27 06:20:13;;;;;;;20.27;11.33;;;;;;;;;;5054712;28;20903;-64
2022/03/27 06:22:40;;;;;;;20.57;12.90;;;;;;;;;;5054538;28;20416;-61
2022/03/27 06:25:06;;;;;;;24.93;11.23;;;;;;;;;;5054658;28;20465;-62
2022/03/27 06:27:32;;;;;;;18.97;10.80;;;;;;;;;;5054552;28;20410;-65
2022/03/27 06:29:58;;;;;;;21.43;11.37;;;;;;;;;;5054537;28;20732;-64
2022/03/27 06:32:27;;;;;;;20.90;10.50;;;;;;;;;;5054586;28;20410;-62
2022/03/27 06:34:57;;;;;;;18.90;10.13;;;;;;;;;;5054440;28;20950;-61
2022/03/27 06:37:24;;;;;;;20.83;11.70;;;;;;;;;;5054309;28;20410;-62
2022/03/27 06:39:50;;;;;;;22.33;11.57;;;;;;;;;;5054293;28;20540;-63
2022/03/27 06:42:16;;;;;;;21.80;11.47;;;;;;;;;;5054317;28;20889;-63
2022/03/27 06:44:42;;;;;;;22.93;11.73;;;;;;;;;;5054059;28;20457;-67
2022/03/27 06:47:09;;;;;;;23.93;10.77;;;;;;;;;;5054220;28;20410;-64
2022/03/27 06:49:35;;;;;;;21.00;11.93;;;;;;;;;;5054077;28;20411;-63
2022/03/27 06:52:01;;;;;;;19.57;11.77;;;;;;;;;;5054066;28;20418;-65
2022/03/27 06:54:29;;;;;;;31.63;13.70;;;;;;;;;;5053938;28;20416;-62
2022/03/27 06:56:55;;;;;;;22.83;11.70;;;;;;;;;;5052613;28;20739;-63
2022/03/27 06:59:22;;;;;;;21.13;12.17;;;;;;;;;;5053883;28;20467;-63
2022/03/27 07:04:32;;;;;;;22.70;11.63;;;;;;;;;;5053814;28;20807;-62
2022/03/27 07:07:00;;;;;;;21.57;13.33;;;;;;;;;;5053742;28;20420;-62
2022/03/27 07:09:26;;;;;;;27.33;12.70;;;;;;;;;;5053437;28;20969;-62
2022/03/27 07:11:52;;;;;;;21.73;12.33;;;;;;;;;;5053713;28;20405;-63
2022/03/27 07:14:18;;;;;;;26.67;12.70;;;;;;;;;;5052953;28;20410;-67
2022/03/27 07:16:44;;;;;;;27.80;12.27;;;;;;;;;;5053653;28;20461;-63
2022/03/27 07:19:10;;;;;;;21.07;12.83;;;;;;;;;;5053535;28;20452;-64
2022/03/27 07:21:37;;;;;;;28.17;14.17;;;;;;;;;;5053454;28;20413;-69
2022/03/27 07:24:03;;;;;;;23.80;13.27;;;;;;;;;;5053479;28;20567;-65
2022/03/27 07:26:29;;;;;;;22.67;12.90;;;;;;;;;;5053384;28;20416;-63
2022/03/27 07:28:55;;;;;;;23.20;12.53;;;;;;;;;;5053387;28;20428;-62
2022/03/27 07:31:21;;;;;;;28.47;13.67;;;;;;;;;;5052082;28;20501;-66
2022/03/27 07:33:48;;;;;;;29.77;11.70;;;;;;;;;;5053396;28;20421;-65
2022/03/27 07:36:14;;;;;;;22.67;12.37;;;;;;;;;;5053171;28;20444;-66
2022/03/27 07:38:40;;;;;;;35.27;15.43;;;;;;;;;;5053238;28;20409;-62
2022/03/27 07:41:06;;;;;;;27.00;14.67;;;;;;;;;;5053197;28;20418;-65
2022/03/27 07:43:32;;;;;;;24.63;14.27;;;;;;;;;;5053180;28;20453;-64
2022/03/27 07:45:59;;;;;;;24.83;13.60;;;;;;;;;;5053086;28;20425;-63
2022/03/27 07:48:26;;;;;;;29.23;15.83;;;;;;;;;;5053123;28;20492;-70
2022/03/27 07:50:54;;;;;;;24.07;15.17;;;;;;;;;;5053039;28;20410;-67
2022/03/27 07:53:20;;;;;;;28.90;16.77;;;;;;;;;;5053053;28;20424;-69
2022/03/27 07:55:46;;;;;;;27.70;15.30;;;;;;;;;;5053087;28;20437;-69
2022/03/27 07:58:12;;;;;;;24.27;14.13;;;;;;;;;;5052900;28;20784;-65
2022/03/27 08:00:38;;;;;;;32.53;16.00;;;;;;;;;;5052829;28;20413;-67
2022/03/27 08:03:04;;;;;;;31.30;15.20;;;;;;;;;;5052878;28;20422;-72
2022/03/27 08:05:30;;;;;;;24.53;14.17;;;;;;;;;;5051634;28;20444;-72
2022/03/27 08:07:56;;;;;;;23.53;14.00;;;;;;;;;;5052772;28;20461;-68
2022/03/27 08:10:23;;;;;;;24.73;15.30;;;;;;;;;;5052760;28;20422;-69
2022/03/27 08:12:49;;;;;;;23.53;13.27;;;;;;;;;;5052987;28;20452;-66
2022/03/27 08:15:17;;;;;;;35.13;16.80;;;;;;;;;;5052853;28;20405;-70
2022/03/27 08:17:43;;;;;;;27.97;13.73;;;;;;;;;;5052787;28;20893;-64
2022/03/27 08:20:10;;;;;;;24.67;14.77;;;;;;;;;;5052702;28;20485;-62
2022/03/27 08:22:36;;;;;;;26.00;15.23;;;;;;;;;;5052657;28;20402;-63
2022/03/27 08:25:03;;;;;;;26.70;14.70;;;;;;;;;;5054486;28;20479;-65
2022/03/27 08:27:31;;;;;;;24.20;14.20;;;;;;;;;;5057487;28;20404;-63
2022/03/27 08:29:57;;;;;;;24.73;14.33;;;;;;;;;;5057305;28;20791;-68
2022/03/27 08:32:23;;;;;;;24.20;14.43;;;;;;;;;;5058840;28;20442;-63
2022/03/27 08:34:49;;;;;;;23.67;14.87;;;;;;;;;;5057028;28;20506;-68
2022/03/27 08:37:16;;;;;;;28.77;15.63;;;;;;;;;;5056828;28;20430;-62
2022/03/27 08:39:46;;;;;;;24.07;15.43;;;;;;;;;;5056657;28;20441;-71
2022/03/27 08:42:13;;;;;;;25.00;15.47;;;;;;;;;;5055191;28;20432;-64
2022/03/27 08:44:39;;;;;;;28.17;13.77;;;;;;;;;;5056629;28;20467;-68
2022/03/27 08:47:10;;;;;;;25.73;13.60;;;;;;;;;;5056667;28;20455;-69
2022/03/27 08:49:40;;;;;;;31.03;16.30;;;;;;;;;;5056614;28;20456;-72
2022/03/27 08:52:11;;;;;;;26.97;14.23;;;;;;;;;;5056585;28;20412;-69
2022/03/27 08:54:43;;;;;;;32.60;14.93;;;;;;;;;;5056407;28;20895;-70
2022/03/27 08:57:28;;;;;;;24.03;14.67;;;;;;;;;;5056329;28;20409;-68
2022/03/27 08:59:54;;;;;;;24.40;14.00;;;;;;;;;;5056253;28;20896;-68
2022/03/27 09:02:24;;;;;;;20.20;12.40;;;;;;;;;;5056151;28;20758;-71
2022/03/27 09:04:56;;;;;;;21.30;12.70;;;;;;;;;;5055971;28;20473;-64
2022/03/27 09:07:26;;;;;;;31.50;14.90;;;;;;;;;;5055983;28;20405;-65
2022/03/27 09:09:53;;;;;;;30.47;15.57;;;;;;;;;;5056014;28;20774;-67
2022/03/27 09:12:19;;;;;;;30.30;12.07;;;;;;;;;;5055998;28;20448;-63
2022/03/27 09:14:45;;;;;;;25.30;14.03;;;;;;;;;;5056163;28;20414;-72
2022/03/27 09:17:12;;;;;;;22.20;13.83;;;;;;;;;;5055969;28;20543;-63
2022/03/27 09:19:39;;;;;;;28.37;14.17;;;;;;;;;;5056027;28;20417;-63
2022/03/27 09:22:13;;;;;;;20.57;12.60;;;;;;;;;;5056022;28;20413;-63
2022/03/27 09:24:39;;;;;;;24.33;12.40;;;;;;;;;;5055881;28;20873;-65
2022/03/27 09:27:05;;;;;;;25.17;11.43;;;;;;;;;;5055965;28;20421;-62
2022/03/27 09:29:51;;;;;;;22.50;12.23;;;;;;;;;;5055833;28;20760;-63
2022/03/27 09:32:31;;;;;;;18.03;11.63;;;;;;;;;;5055769;28;20475;-66
2022/03/27 09:34:58;;;;;;;21.93;11.93;;;;;;;;;;5055797;28;20428;-62
2022/03/27 09:37:28;;;;;;;21.20;11.60;;;;;;;;;;5054975;28;20402;-69
2022/03/27 09:39:55;;;;;;;19.83;12.07;;;;;;;;;;5054283;28;20952;-63
2022/03/27 09:42:21;;;;;;;22.23;11.70;;;;;;;;;;5055424;28;20449;-66
2022/03/27 09:44:47;;;;;;;19.30;12.00;;;;;;;;;;5055487;28;20523;-67
2022/03/27 09:47:13;;;;;;;23.07;12.70;;;;;;;;;;5055589;28;20456;-63
2022/03/27 09:49:41;;;;;;;24.50;12.33;;;;;;;;;;5054228;28;20849;-68
2022/03/27 09:52:11;;;;;;;21.83;13.00;;;;;;;;;;5055485;28;20409;-65
2022/03/27 09:54:45;;;;;;;22.90;12.30;;;;;;;;;;5055397;28;20432;-66
2022/03/27 09:57:35;;;;;;;23.13;12.70;;;;;;;;;;5055198;28;20430;-63
2022/03/27 10:00:20;;;;;;;23.20;13.30;;;;;;;;;;5054820;28;20468;-67
2022/03/27 10:02:46;;;;;;;23.93;14.03;;;;;;;;;;5055085;28;20457;-62
2022/03/27 10:05:14;;;;;;;38.10;12.87;;;;;;;;;;5054974;28;20469;-64
2022/03/27 10:07:52;;;;;;;27.60;12.30;;;;;;;;;;5054939;28;20449;-71
2022/03/27 10:10:23;;;;;;;25.30;11.60;;;;;;;;;;5054943;28;20547;-68
2022/03/27 10:12:50;;;;;;;24.07;12.93;;;;;;;;;;5054936;28;20496;-63
2022/03/27 10:15:18;;;;;;;20.80;12.77;;;;;;;;;;5054780;28;20909;-62
2022/03/27 10:17:49;;;;;;;22.07;11.93;;;;;;;;;;5054956;28;20747;-62
2022/03/27 10:20:17;;;;;;;20.77;12.07;;;;;;;;;;5054724;28;20888;-61
2022/03/27 10:22:47;;;;;;;19.07;10.70;;;;;;;;;;5054699;28;20412;-63
2022/03/27 10:25:14;;;;;;;18.80;10.97;;;;;;;;;;5054716;28;20469;-62
2022/03/27 10:27:41;;;;;;;23.83;11.93;;;;;;;;;;5054636;28;20416;-63
2022/03/27 10:30:08;;;;;;;21.20;11.87;;;;;;;;;;5054652;28;20429;-62
2022/03/27 10:32:35;;;;;;;23.60;12.20;;;;;;;;;;5054639;28;20425;-62
2022/03/27 10:35:05;;;;;;;20.43;11.90;;;;;;;;;;5053306;28;20429;-66
2022/03/27 10:37:51;;;;;;;21.17;10.40;;;;;;;;;;5053249;28;20789;-65
2022/03/27 10:40:20;;;;;;;22.73;11.70;;;;;;;;;;5054380;28;20413;-69
2022/03/27 10:42:50;;;;;;;27.63;11.40;;;;;;;;;;5054204;28;20444;-69
2022/03/27 10:45:22;;;;;;;25.00;12.23;;;;;;;;;;5054261;28;20518;-67
2022/03/27 10:48:07;;;;;;;19.03;11.27;;;;;;;;;;5054257;28;20437;-68
2022/03/27 10:50:44;;;;;;;22.03;11.70;;;;;;;;;;5054308;28;20416;-65
2022/03/27 10:53:11;;;;;;;20.10;10.53;;;;;;;;;;5054347;28;20893;-66
2022/03/27 10:55:38;;;;;;;22.30;12.10;;;;;;;;;;5054480;28;20423;-69
2022/03/27 10:58:24;;;;;;;25.00;11.67;;;;;;;;;;5053982;28;20402;-69
2022/03/27 11:00:50;;;;;;;20.80;12.07;;;;;;;;;;5053783;28;20425;-71
2022/03/27 11:03:35;;;;;;;19.70;11.53;;;;;;;;;;5053767;28;20496;-73
2022/03/27 11:06:01;;;;;;;18.03;9.70;;;;;;;;;;5053815;28;21014;-66
2022/03/27 11:08:27;;;;;;;18.87;11.30;;;;;;;;;;5053755;28;20453;-64
2022/03/27 11:10:55;;;;;;;22.50;12.77;;;;;;;;;;5052739;28;20447;-62
2022/03/27 11:13:28;;;;;;;21.90;12.60;;;;;;;;;;5053916;28;20811;-68
2022/03/27 11:16:03;;;;;;;24.50;12.87;;;;;;;;;;5053836;28;20451;-65
2022/03/27 11:18:42;;;;;;;21.07;11.57;;;;;;;;;;5053779;28;20408;-63
2022/03/27 11:21:11;;;;;;;23.00;11.77;;;;;;;;;;5052392;28;20408;-62
2022/03/27 11:23:38;;;;;;;21.30;12.47;;;;;;;;;;5053609;28;20473;-69
2022/03/27 11:26:22;;;;;;;25.53;12.97;;;;;;;;;;5053626;28;20404;-63
2022/03/27 11:28:50;;;;;;;18.97;10.73;;;;;;;;;;5053450;28;20443;-63
2022/03/27 11:31:17;;;;;;;23.50;12.80;;;;;;;;;;5053645;28;20920;-71
2022/03/27 11:33:46;;;;;;;20.97;12.03;;;;;;;;;;5053442;28;20421;-71
2022/03/27 11:36:19;;;;;;;26.53;12.00;;;;;;;;;;5052088;28;20437;-72
2022/03/27 11:38:57;;;;;;;22.80;12.80;;;;;;;;;;5053366;28;20472;-73
2022/03/27 11:41:30;;;;;;;21.10;11.40;;;;;;;;;;5052008;28;20476;-70
2022/03/27 11:44:16;;;;;;;16.87;10.37;;;;;;;;;;5053171;28;20559;-70
2022/03/27 11:46:43;;;;;;;21.70;11.50;;;;;;;;;;5053305;28;20408;-71
2022/03/27 11:49:11;;;;;;;18.70;10.67;;;;;;;;;;5053170;28;20406;-72
2022/03/27 11:51:37;;;;;;;19.63;11.60;;;;;;;;;;5053196;28;20472;-71
2022/03/27 11:54:15;;;;;;;18.23;11.50;;;;;;;;;;5053087;28;20402;-71
2022/03/27 11:56:52;;;;;;;19.93;11.17;;;;;;;;;;5053222;28;20475;-72
2022/03/27 11:59:18;;;;;;;17.47;10.13;;;;;;;;;;5052582;28;20905;-71
2022/03/27 12:01:49;;;;;;;25.33;10.30;;;;;;;;;;5052965;28;20404;-69
2022/03/27 12:04:16;;;;;;;16.70;10.30;;;;;;;;;;5051516;28;20481;-73
2022/03/27 12:06:42;;;;;;;17.83;9.57;;;;;;;;;;5051715;28;20486;-63
2022/03/27 12:09:08;;;;;;;18.40;10.07;;;;;;;;;;5052605;28;20890;-65
2022/03/27 12:11:35;;;;;;;16.80;10.50;;;;;;;;;;5052892;28;20453;-72
2022/03/27 12:14:08;;;;;;;20.47;10.50;;;;;;;;;;5052972;28;20508;-75
2022/03/27 12:16:34;;;;;;;18.80;10.20;;;;;;;;;;5051615;28;20417;-69
2022/03/27 12:19:12;;;;;;;19.87;10.63;;;;;;;;;;5052771;28;20751;-73
2022/03/27 12:21:44;;;;;;;14.13;9.03;;;;;;;;;;5052695;28;20414;-70
2022/03/27 12:24:10;;;;;;;16.13;8.80;;;;;;;;;;5052697;28;20466;-70
2022/03/27 12:29:40;;;;;;;14.33;8.83;;;;;;;;;;5053213;28;20401;-66
2022/03/27 12:32:07;;;;;;;17.93;9.67;;;;;;;;;;5052889;28;20401;-66
2022/03/27 12:34:34;;;;;;;16.50;9.77;;;;;;;;;;5052502;28;20468;-63
2022/03/27 12:37:10;;;;;;;12.80;8.80;;;;;;;;;;5052759;28;20417;-64
2022/03/27 12:39:37;;;;;;;17.30;9.57;;;;;;;;;;5052574;28;20409;-71
2022/03/27 12:42:03;;;;;;;22.77;9.70;;;;;;;;;;5052507;28;20408;-66
2022/03/27 12:44:49;;;;;;;16.77;10.07;;;;;;;;;;5052608;28;20556;-74
2022/03/27 12:47:15;;;;;;;13.93;9.03;;;;;;;;;;5052577;28;20453;-71
2022/03/27 12:49:50;;;;;;;13.60;8.43;;;;;;;;;;5052530;28;20438;-71
2022/03/27 12:52:17;;;;;;;13.80;8.70;;;;;;;;;;5051331;28;20405;-72
2022/03/27 12:54:55;;;;;;;13.57;7.80;;;;;;;;;;5052533;28;20421;-70
2022/03/27 12:57:21;;;;;;;17.63;9.63;;;;;;;;;;5052476;28;20417;-69
2022/03/27 12:59:48;;;;;;;17.37;9.33;;;;;;;;;;5052634;28;20405;-68
2022/03/27 13:02:25;;;;;;;15.00;9.10;;;;;;;;;;5052270;28;20443;-68
2022/03/27 13:05:01;;;;;;;15.60;9.27;;;;;;;;;;5051013;28;20500;-62
2022/03/27 13:07:46;;;;;;;16.07;8.83;;;;;;;;;;5052398;28;20416;-62
2022/03/27 13:10:12;;;;;;;16.37;9.00;;;;;;;;;;5052284;28;20410;-64
2022/03/27 13:12:38;;;;;;;14.90;8.33;;;;;;;;;;5054594;28;20844;-69
2022/03/27 13:15:04;;;;;;;15.93;9.43;;;;;;;;;;5054749;28;20408;-68
2022/03/27 13:17:30;;;;;;;13.50;7.93;;;;;;;;;;5054866;28;20414;-64
2022/03/27 13:19:56;;;;;;;17.70;9.37;;;;;;;;;;5055847;28;20498;-64
2022/03/27 13:22:22;;;;;;;19.63;9.23;;;;;;;;;;5055805;28;20413;-65
2022/03/27 13:24:53;;;;;;;15.27;8.70;;;;;;;;;;5055942;28;20473;-63
2022/03/27 13:27:19;;;;;;;13.53;8.93;;;;;;;;;;5055891;28;20401;-66
2022/03/27 13:29:45;;;;;;;17.43;9.17;;;;;;;;;;5055851;28;20826;-64
2022/03/27 13:32:11;;;;;;;13.83;8.43;;;;;;;;;;5055993;28;20822;-65
2022/03/27 13:34:37;;;;;;;12.47;8.00;;;;;;;;;;5055604;28;20602;-63
2022/03/27 13:37:03;;;;;;;15.03;8.43;;;;;;;;;;5055814;28;20897;-63
2022/03/27 13:39:29;;;;;;;12.30;7.43;;;;;;;;;;5055492;28;20422;-63
2022/03/27 13:44:41;;;;;;;13.57;7.93;;;;;;;;;;5055495;28;20499;-64
2022/03/27 13:47:07;;;;;;;17.40;8.40;;;;;;;;;;5054274;28;20475;-69
2022/03/27 13:49:34;;;;;;;12.00;7.90;;;;;;;;;;5054121;28;20905;-64
2022/03/27 13:52:00;;;;;;;14.10;8.40;;;;;;;;;;5055415;28;20422;-68
2022/03/27 13:54:26;;;;;;;13.70;8.30;;;;;;;;;;5055398;28;20483;-65
2022/03/27 13:56:52;;;;;;;13.80;8.77;;;;;;;;;;5055402;28;20404;-63
2022/03/27 13:59:18;;;;;;;15.03;9.33;;;;;;;;;;5055202;28;20819;-65
2022/03/27 14:01:45;;;;;;;15.07;9.73;;;;;;;;;;5055139;28;20405;-64
2022/03/27 14:04:12;;;;;;;15.30;9.00;;;;;;;;;;5054879;28;20500;-64
2022/03/27 14:06:38;;;;;;;15.13;8.40;;;;;;;;;;5053878;28;20854;-64
2022/03/27 14:09:05;;;;;;;15.07;8.83;;;;;;;;;;5054908;28;20964;-62
2022/03/27 14:11:32;;;;;;;16.00;7.43;;;;;;;;;;5054933;28;20445;-62
2022/03/27 14:13:58;;;;;;;18.30;8.83;;;;;;;;;;5054973;28;20405;-65
2022/03/27 14:16:24;;;;;;;17.00;9.53;;;;;;;;;;5054781;28;20428;-62
2022/03/27 14:18:50;;;;;;;12.87;8.10;;;;;;;;;;5054913;28;20443;-63
2022/03/27 14:21:16;;;;;;;14.17;8.50;;;;;;;;;;5054819;28;20418;-63
2022/03/27 14:23:43;;;;;;;18.30;8.97;;;;;;;;;;5054495;28;20461;-63
2022/03/27 14:26:09;;;;;;;13.47;8.20;;;;;;;;;;5054729;28;20437;-62
2022/03/27 14:28:35;;;;;;;14.20;8.17;;;;;;;;;;5054672;28;20918;-64
2022/03/27 14:31:02;;;;;;;18.53;8.87;;;;;;;;;;5054876;28;20412;-68
2022/03/27 14:33:28;;;;;;;13.33;8.20;;;;;;;;;;5054795;28;20512;-73